createdAt,value
2023-02-12T00:02:02.238Z,101889.49
2023-02-12T00:04:16.473Z,101895.00
2023-02-12T00:06:29.136Z,101893.80
2023-02-12T00:08:41.814Z,101892.59
2023-02-12T00:10:54.359Z,101893.63
2023-02-12T00:13:06.879Z,101896.39
2023-02-12T00:15:19.502Z,101898.28
2023-02-12T00:17:32.053Z,101906.73
2023-02-12T00:19:44.701Z,101908.96
2023-02-12T00:21:57.318Z,101911.20
2023-02-12T00:24:09.887Z,101912.08
2023-02-12T00:26:23.394Z,101915.71
2023-02-12T00:28:36.307Z,101915.19
2023-02-12T00:30:49.009Z,101914.84
2023-02-12T00:33:01.657Z,101914.33
2023-02-12T00:35:14.171Z,101917.42
2023-02-12T00:37:26.742Z,101918.63
2023-02-12T00:39:39.787Z,101922.59
2023-02-12T00:41:52.328Z,101924.32
2023-02-12T00:44:04.991Z,101922.42
2023-02-12T00:46:17.827Z,101925.52
2023-02-12T00:48:30.925Z,101922.27
2023-02-12T00:50:47.474Z,101925.34
2023-02-12T00:53:00.058Z,101930.52
2023-02-12T00:55:12.622Z,101930.35
2023-02-12T00:57:25.190Z,101924.83
2023-02-12T00:59:40.042Z,101924.84
2023-02-12T01:01:54.873Z,101924.31
2023-02-12T01:04:07.675Z,101927.77
2023-02-12T01:06:20.222Z,101927.92
2023-02-12T01:08:32.885Z,101929.83
2023-02-12T01:10:45.563Z,101932.59
2023-02-12T01:12:58.185Z,101932.92
2023-02-12T01:15:10.895Z,101938.10
2023-02-12T01:17:23.408Z,101940.35
2023-02-12T01:19:35.941Z,101942.06
2023-02-12T01:21:48.487Z,101942.91
2023-02-12T01:24:01.968Z,101944.82
2023-02-12T01:26:16.388Z,101947.06
2023-02-12T01:28:28.966Z,101950.67
2023-02-12T01:30:41.562Z,101956.20
2023-02-12T01:32:55.545Z,101958.80
2023-02-12T01:35:10.122Z,101950.87
2023-02-12T01:37:22.645Z,101947.60
2023-02-12T01:39:35.853Z,101949.65
2023-02-12T01:41:48.492Z,101948.27
2023-02-12T01:44:20.938Z,101956.55
2023-02-12T01:46:33.601Z,101971.54
2023-02-12T01:48:48.084Z,101980.67
2023-02-12T01:51:02.678Z,101981.55
2023-02-12T01:53:20.261Z,101988.80
2023-02-12T01:55:32.885Z,101991.02
2023-02-12T01:57:47.189Z,101991.20
2023-02-12T02:00:02.685Z,101993.79
2023-02-12T02:02:15.325Z,101994.80
2023-02-12T02:04:31.854Z,101998.08
2023-02-12T02:06:50.577Z,101998.42
2023-02-12T02:09:04.316Z,101998.95
2023-02-12T02:11:52.123Z,102001.53
2023-02-12T02:14:23.315Z,102003.23
2023-02-12T02:16:37.277Z,102006.33
2023-02-12T02:19:06.885Z,102011.34
2023-02-12T02:21:38.233Z,102010.80
2023-02-12T02:24:09.547Z,102008.20
2023-02-12T02:26:45.065Z,102008.73
2023-02-12T02:29:09.520Z,102010.80
2023-02-12T02:31:46.998Z,102007.55
2023-02-12T02:34:16.003Z,102010.28
2023-02-12T02:37:00.834Z,102011.30
2023-02-12T02:39:23.577Z,102009.06
2023-02-12T02:42:00.048Z,102014.39
2023-02-12T02:44:21.125Z,102019.21
2023-02-12T02:46:41.987Z,102019.05
2023-02-12T02:49:01.925Z,102023.88
2023-02-12T02:51:20.233Z,102025.79
2023-02-12T02:53:38.628Z,102033.20
2023-02-12T02:55:54.562Z,102036.66
2023-02-12T02:58:17.370Z,102039.59
2023-02-12T03:00:48.762Z,102043.90
2023-02-12T03:03:12.145Z,102047.17
2023-02-12T03:05:40.356Z,102046.83
2023-02-12T03:07:59.036Z,102045.45
2023-02-12T03:10:18.927Z,102044.59
2023-02-12T03:12:43.293Z,102047.18
2023-02-12T03:15:24.525Z,102044.41
2023-02-12T03:17:44.430Z,102052.00
2023-02-12T03:20:06.000Z,102057.52
2023-02-12T03:22:28.071Z,102060.95
2023-02-12T03:24:48.928Z,102064.26
2023-02-12T03:27:07.398Z,102064.59
2023-02-12T03:29:20.218Z,102066.31
2023-02-12T03:31:54.012Z,102070.63
2023-02-12T03:34:44.774Z,102072.19
2023-02-12T03:37:04.815Z,102080.63
2023-02-12T03:39:28.850Z,102084.58
2023-02-12T03:41:50.077Z,102088.73
2023-02-12T03:44:15.210Z,102094.08
2023-02-12T03:46:57.844Z,102097.86
2023-02-12T03:49:27.554Z,102102.31
2023-02-12T03:51:44.657Z,102101.96
2023-02-12T03:53:57.925Z,102104.39
2023-02-12T03:56:15.946Z,102110.61
2023-02-12T03:58:30.496Z,102114.41
2023-02-12T04:00:43.356Z,102111.84
2023-02-12T04:02:57.090Z,102114.09
2023-02-12T04:05:17.852Z,102118.74
2023-02-12T04:07:30.540Z,102126.84
2023-02-12T04:09:43.621Z,102128.38
2023-02-12T04:12:03.897Z,102133.55
2023-02-12T04:14:16.386Z,102141.64
2023-02-12T04:16:37.959Z,102140.44
2023-02-12T04:18:52.275Z,102142.84
2023-02-12T04:21:29.095Z,102141.30
2023-02-12T04:23:53.087Z,102144.92
2023-02-12T04:26:23.808Z,102144.55
2023-02-12T04:29:05.421Z,102143.68
2023-02-12T04:31:29.608Z,102145.72
2023-02-12T04:33:53.196Z,102153.81
2023-02-12T04:36:15.444Z,102154.52
2023-02-12T04:38:34.792Z,102157.80
2023-02-12T04:40:48.019Z,102161.75
2023-02-12T04:43:01.183Z,102162.79
2023-02-12T04:45:22.864Z,102161.58
2023-02-12T04:47:35.405Z,102165.91
2023-02-12T04:49:47.958Z,102167.83
2023-02-12T04:52:00.594Z,102171.46
2023-02-12T04:54:14.652Z,102170.77
2023-02-12T04:56:27.212Z,102174.39
2023-02-12T04:58:40.879Z,102174.57
2023-02-12T05:00:53.448Z,102176.98
2023-02-12T05:03:06.032Z,102183.02
2023-02-12T05:05:18.706Z,102185.61
2023-02-12T05:07:31.224Z,102187.48
2023-02-12T05:09:43.768Z,102184.91
2023-02-12T05:11:56.263Z,102186.65
2023-02-12T05:14:08.769Z,102190.46
2023-02-12T05:16:22.599Z,102192.02
2023-02-12T05:18:35.755Z,102196.15
2023-02-12T05:20:56.967Z,102195.63
2023-02-12T05:23:09.477Z,102200.45
2023-02-12T05:25:22.118Z,102203.36
2023-02-12T05:27:34.665Z,102205.59
2023-02-12T05:29:47.258Z,102207.30
2023-02-12T05:31:59.996Z,102204.20
2023-02-12T05:34:12.949Z,102212.82
2023-02-12T05:36:25.822Z,102211.79
2023-02-12T05:38:38.324Z,102215.95
2023-02-12T05:40:50.815Z,102215.61
2023-02-12T05:43:03.396Z,102216.83
2023-02-12T05:45:16.042Z,102218.88
2023-02-12T05:47:28.561Z,102219.73
2023-02-12T05:49:41.182Z,102224.22
2023-02-12T05:51:53.695Z,102226.13
2023-02-12T05:54:07.290Z,102233.06
2023-02-12T05:56:23.040Z,102236.33
2023-02-12T05:58:35.750Z,102238.92
2023-02-12T06:00:48.376Z,102241.84
2023-02-12T06:03:01.005Z,102248.38
2023-02-12T06:05:13.689Z,102250.83
2023-02-12T06:07:27.857Z,102254.61
2023-02-12T06:09:40.459Z,102261.17
2023-02-12T06:11:52.977Z,102263.91
2023-02-12T06:14:07.114Z,102267.71
2023-02-12T06:16:22.689Z,102269.61
2023-02-12T06:18:36.389Z,102269.61
2023-02-12T06:20:48.932Z,102273.77
2023-02-12T06:23:01.443Z,102283.98
2023-02-12T06:25:14.360Z,102287.25
2023-02-12T06:27:26.913Z,102293.61
2023-02-12T06:29:39.457Z,102298.95
2023-02-12T06:31:52.193Z,102305.33
2023-02-12T06:34:07.841Z,102310.84
2023-02-12T06:36:21.556Z,102313.61
2023-02-12T06:38:35.121Z,102314.98
2023-02-12T06:40:48.089Z,102317.91
2023-02-12T06:43:00.782Z,102317.73
2023-02-12T06:45:13.398Z,102319.30
2023-02-12T06:47:27.101Z,102325.90
2023-02-12T06:49:42.464Z,102328.47
2023-02-12T06:51:55.044Z,102333.11
2023-02-12T06:54:13.768Z,102332.94
2023-02-12T06:56:27.431Z,102335.38
2023-02-12T06:58:49.259Z,102335.54
2023-02-12T07:01:17.796Z,102335.91
2023-02-12T07:03:30.350Z,102339.39
2023-02-12T07:05:42.958Z,102341.84
2023-02-12T07:07:55.587Z,102343.06
2023-02-12T07:10:08.872Z,102344.80
2023-02-12T07:12:21.416Z,102349.30
2023-02-12T07:14:34.176Z,102355.01
2023-02-12T07:16:46.739Z,102357.95
2023-02-12T07:18:59.374Z,102360.55
2023-02-12T07:21:13.379Z,102362.27
2023-02-12T07:23:25.997Z,102364.20
2023-02-12T07:25:38.703Z,102364.39
2023-02-12T07:27:51.233Z,102363.90
2023-02-12T07:30:05.506Z,102363.93
2023-02-12T07:32:18.070Z,102371.39
2023-02-12T07:34:30.666Z,102371.23
2023-02-12T07:36:43.345Z,102372.80
2023-02-12T07:38:57.278Z,102372.70
2023-02-12T07:41:16.474Z,102372.23
2023-02-12T07:43:29.150Z,102376.90
2023-02-12T07:45:41.700Z,102377.79
2023-02-12T07:47:54.265Z,102381.77
2023-02-12T07:50:07.242Z,102382.48
2023-02-12T07:52:19.768Z,102383.19
2023-02-12T07:54:32.344Z,102388.36
2023-02-12T07:56:46.927Z,102392.02
2023-02-12T07:59:05.204Z,102397.18
2023-02-12T08:01:21.555Z,102402.53
2023-02-12T08:03:34.112Z,102400.10
2023-02-12T08:05:46.612Z,102405.11
2023-02-12T08:07:59.133Z,102411.35
2023-02-12T08:10:11.742Z,102410.65
2023-02-12T08:12:24.302Z,102409.27
2023-02-12T08:14:36.844Z,102409.78
2023-02-12T08:16:50.809Z,102410.85
2023-02-12T08:19:16.563Z,102416.92
2023-02-12T08:21:30.465Z,102416.92
2023-02-12T08:23:43.095Z,102412.96
2023-02-12T08:25:55.918Z,102413.67
2023-02-12T08:28:08.628Z,102411.08
2023-02-12T08:30:21.177Z,102414.73
2023-02-12T08:32:33.824Z,102416.27
2023-02-12T08:34:46.405Z,102419.56
2023-02-12T08:36:59.604Z,102420.44
2023-02-12T08:39:12.700Z,102420.77
2023-02-12T08:41:28.289Z,102420.61
2023-02-12T08:43:42.736Z,102419.73
2023-02-12T08:45:58.018Z,102418.85
2023-02-12T08:48:10.858Z,102418.19
2023-02-12T08:50:23.360Z,102410.43
2023-02-12T08:52:35.893Z,102411.85
2023-02-12T08:54:48.430Z,102419.65
2023-02-12T08:57:03.607Z,102423.97
2023-02-12T08:59:17.077Z,102428.65
2023-02-12T09:01:31.632Z,102435.02
2023-02-12T09:03:44.965Z,102437.29
2023-02-12T09:05:57.809Z,102437.46
2023-02-12T09:08:10.439Z,102443.85
2023-02-12T09:10:23.011Z,102444.54
2023-02-12T09:12:35.506Z,102448.17
2023-02-12T09:14:48.097Z,102447.48
2023-02-12T09:17:00.704Z,102455.27
2023-02-12T09:19:14.595Z,102448.35
2023-02-12T09:21:27.337Z,102454.91
2023-02-12T09:23:40.699Z,102457.16
2023-02-12T09:25:53.207Z,102461.48
2023-02-12T09:28:05.864Z,102467.88
2023-02-12T09:30:18.783Z,102464.25
2023-02-12T09:32:31.390Z,102465.30
2023-02-12T09:34:43.908Z,102469.95
2023-02-12T09:36:56.447Z,102466.16
2023-02-12T09:39:09.023Z,102467.73
2023-02-12T09:41:46.679Z,102471.03
2023-02-12T09:44:11.415Z,102466.18
2023-02-12T09:46:31.300Z,102468.59
2023-02-12T09:48:59.362Z,102469.78
2023-02-12T09:51:12.645Z,102469.05
2023-02-12T09:53:29.227Z,102473.55
2023-02-12T09:55:41.840Z,102475.08
2023-02-12T09:57:55.076Z,102479.74
2023-02-12T10:00:31.079Z,102479.36
2023-02-12T10:02:43.843Z,102478.81
2023-02-12T10:05:01.580Z,102475.33
2023-02-12T10:07:48.064Z,102475.00
2023-02-12T10:10:15.931Z,102469.81
2023-02-12T10:12:50.452Z,102467.94
2023-02-12T10:15:15.019Z,102465.88
2023-02-12T10:17:37.719Z,102459.79
2023-02-12T10:20:04.293Z,102462.87
2023-02-12T10:22:56.518Z,102461.36
2023-02-12T10:25:24.562Z,102461.16
2023-02-12T10:27:46.687Z,102458.59
2023-02-12T10:30:00.833Z,102458.52
2023-02-12T10:32:25.685Z,102451.77
2023-02-12T10:34:41.385Z,102451.27
2023-02-12T10:36:59.426Z,102451.50
2023-02-12T10:39:14.722Z,102448.52
2023-02-12T10:41:30.114Z,102449.23
2023-02-12T10:43:42.772Z,102444.60
2023-02-12T10:45:55.845Z,102439.68
2023-02-12T10:48:24.256Z,102444.50
2023-02-12T10:50:51.966Z,102447.77
2023-02-12T10:53:04.537Z,102447.24
2023-02-12T10:55:34.959Z,102442.41
2023-02-12T10:57:47.554Z,102445.16
2023-02-12T11:00:29.733Z,102448.55
2023-02-12T11:03:00.418Z,102448.31
2023-02-12T11:05:24.387Z,102443.73
2023-02-12T11:07:48.565Z,102447.05
2023-02-12T11:10:01.154Z,102442.02
2023-02-12T11:12:31.711Z,102436.64
2023-02-12T11:14:52.845Z,102434.41
2023-02-12T11:17:05.683Z,102433.39
2023-02-12T11:19:28.220Z,102434.78
2023-02-12T11:21:40.809Z,102433.77
2023-02-12T11:23:53.417Z,102433.61
2023-02-12T11:26:22.388Z,102434.48
2023-02-12T11:28:36.843Z,102439.68
2023-02-12T11:30:58.823Z,102433.39
2023-02-12T11:33:25.962Z,102430.61
2023-02-12T11:35:49.408Z,102427.98
2023-02-12T11:38:03.436Z,102428.31
2023-02-12T11:40:23.862Z,102427.95
2023-02-12T11:42:38.449Z,102430.02
2023-02-12T11:44:55.022Z,102429.14
2023-02-12T11:47:18.780Z,102428.11
2023-02-12T11:49:34.278Z,102426.20
2023-02-12T11:51:47.915Z,102428.73
2023-02-12T11:54:03.548Z,102427.34
2023-02-12T11:56:16.684Z,102421.73
2023-02-12T11:58:30.729Z,102423.02
2023-02-12T12:00:52.333Z,102424.86
2023-02-12T12:03:15.227Z,102425.96
2023-02-12T12:05:36.914Z,102426.54
2023-02-12T12:07:58.621Z,102430.71
2023-02-12T12:10:25.720Z,102432.31
2023-02-12T12:12:50.864Z,102432.81
2023-02-12T12:15:26.255Z,102428.71
2023-02-12T12:18:13.931Z,102427.38
2023-02-12T12:20:32.035Z,102421.31
2023-02-12T12:23:00.808Z,102422.87
2023-02-12T12:25:41.463Z,102422.45
2023-02-12T12:28:06.555Z,102424.02
2023-02-12T12:30:37.677Z,102421.38
2023-02-12T12:32:52.792Z,102423.74
2023-02-12T12:35:11.193Z,102421.19
2023-02-12T12:37:37.032Z,102420.71
2023-02-12T12:40:26.806Z,102419.17
2023-02-12T12:43:02.464Z,102418.52
2023-02-12T12:45:50.328Z,102419.91
2023-02-12T12:48:09.629Z,102416.63
2023-02-12T12:50:29.681Z,102409.98
2023-02-12T12:53:27.887Z,102410.66
2023-02-12T12:55:59.040Z,102409.27
2023-02-12T12:58:29.641Z,102408.58
2023-02-12T13:01:14.687Z,102405.95
2023-02-12T13:04:09.162Z,102408.88
2023-02-12T13:06:29.242Z,102409.05
2023-02-12T13:09:08.017Z,102406.96
2023-02-12T13:11:38.943Z,102406.83
2023-02-12T13:14:03.302Z,102409.30
2023-02-12T13:16:34.715Z,102407.04
2023-02-12T13:19:09.164Z,102405.13
2023-02-12T13:21:44.175Z,102409.83
2023-02-12T13:24:08.175Z,102412.92
2023-02-12T13:26:30.984Z,102411.91
2023-02-12T13:28:56.857Z,102420.63
2023-02-12T13:31:34.374Z,102413.02
2023-02-12T13:33:53.076Z,102420.69
2023-02-12T13:36:07.372Z,102422.09
2023-02-12T13:38:31.260Z,102422.81
2023-02-12T13:40:43.965Z,102426.28
2023-02-12T13:43:22.189Z,102424.41
2023-02-12T13:45:54.824Z,102422.88
2023-02-12T13:48:29.261Z,102418.75
2023-02-12T13:51:01.071Z,102422.26
2023-02-12T13:53:32.282Z,102418.80
2023-02-12T13:56:01.776Z,102415.19
2023-02-12T13:58:32.910Z,102414.32
2023-02-12T14:00:51.490Z,102414.68
2023-02-12T14:03:09.331Z,102414.52
2023-02-12T14:05:26.565Z,102415.36
2023-02-12T14:07:45.777Z,102413.62
2023-02-12T14:09:58.420Z,102416.21
2023-02-12T14:12:27.272Z,102420.86
2023-02-12T14:14:49.996Z,102416.35
2023-02-12T14:17:33.524Z,102420.34
2023-02-12T14:19:54.766Z,102418.29
2023-02-12T14:22:13.266Z,102417.45
2023-02-12T14:24:37.876Z,102416.23
2023-02-12T14:26:50.661Z,102418.49
2023-02-12T14:29:06.637Z,102415.05
2023-02-12T14:31:19.584Z,102416.27
2023-02-12T14:33:32.296Z,102422.14
2023-02-12T14:35:47.052Z,102425.27
2023-02-12T14:38:02.303Z,102425.95
2023-02-12T14:40:31.880Z,102421.27
2023-02-12T14:42:55.844Z,102418.88
2023-02-12T14:45:28.358Z,102416.96
2023-02-12T14:47:43.422Z,102421.48
2023-02-12T14:50:01.489Z,102424.77
2023-02-12T14:52:14.494Z,102420.27
2023-02-12T14:54:32.818Z,102425.28
2023-02-12T14:56:49.311Z,102424.77
2023-02-12T14:59:03.742Z,102425.98
2023-02-12T15:01:16.998Z,102423.03
2023-02-12T15:03:42.951Z,102420.45
2023-02-12T15:06:01.942Z,102418.90
2023-02-12T15:08:53.156Z,102420.45
2023-02-12T15:11:26.434Z,102420.83
2023-02-12T15:13:57.143Z,102417.36
2023-02-12T15:16:22.242Z,102420.83
2023-02-12T15:18:40.997Z,102420.84
2023-02-12T15:21:27.740Z,102424.81
2023-02-12T15:23:43.034Z,102425.85
2023-02-12T15:25:57.108Z,102422.39
2023-02-12T15:28:29.689Z,102423.25
2023-02-12T15:30:42.851Z,102424.63
2023-02-12T15:33:02.407Z,102427.23
2023-02-12T15:35:28.450Z,102427.56
2023-02-12T15:37:41.083Z,102426.20
2023-02-12T15:39:57.113Z,102429.31
2023-02-12T15:42:35.532Z,102434.86
2023-02-12T15:45:16.204Z,102438.48
2023-02-12T15:47:34.778Z,102440.75
2023-02-12T15:49:47.569Z,102440.91
2023-02-12T15:54:56.797Z,102442.31
2023-02-12T15:57:11.429Z,102442.31
2023-02-12T15:59:29.046Z,102441.27
2023-02-12T16:01:54.289Z,102442.66
2023-02-12T16:04:08.285Z,102441.27
2023-02-12T16:06:23.152Z,102442.30
2023-02-12T16:08:36.050Z,102443.17
2023-02-12T16:10:51.877Z,102446.11
2023-02-12T16:13:05.017Z,102452.01
2023-02-12T16:15:30.829Z,102452.34
2023-02-12T16:17:47.749Z,102459.95
2023-02-12T16:20:08.845Z,102458.21
2023-02-12T16:22:26.226Z,102464.08
2023-02-12T16:24:45.654Z,102467.52
2023-02-12T16:27:04.401Z,102466.33
2023-02-12T16:29:18.267Z,102468.21
2023-02-12T16:31:31.058Z,102473.05
2023-02-12T16:33:52.563Z,102473.00
2023-02-12T16:36:24.268Z,102470.58
2023-02-12T16:38:46.058Z,102471.95
2023-02-12T16:41:23.516Z,102474.17
2023-02-12T16:43:36.135Z,102471.73
2023-02-12T16:45:49.442Z,102471.05
2023-02-12T16:48:23.295Z,102474.33
2023-02-12T16:50:43.336Z,102473.28
2023-02-12T16:53:05.421Z,102474.82
2023-02-12T16:55:18.071Z,102472.58
2023-02-12T16:57:30.729Z,102468.94
2023-02-12T16:59:45.229Z,102467.57
2023-02-12T17:02:05.120Z,102471.86
2023-02-12T17:04:17.827Z,102474.80
2023-02-12T17:06:31.703Z,102477.04
2023-02-12T17:08:44.474Z,102479.11
2023-02-12T17:10:57.004Z,102482.89
2023-02-12T17:13:09.673Z,102484.27
2023-02-12T17:15:28.441Z,102485.14
2023-02-12T17:17:41.010Z,102486.17
2023-02-12T17:19:53.606Z,102486.70
2023-02-12T17:22:15.872Z,102484.63
2023-02-12T17:24:31.374Z,102484.27
2023-02-12T17:26:43.984Z,102485.13
2023-02-12T17:29:05.099Z,102486.35
2023-02-12T17:31:19.538Z,102484.62
2023-02-12T17:33:32.876Z,102484.45
2023-02-12T17:35:45.676Z,102486.52
2023-02-12T17:37:58.307Z,102486.35
2023-02-12T17:40:12.557Z,102488.29
2023-02-12T17:42:25.147Z,102488.27
2023-02-12T17:44:37.890Z,102485.49
2023-02-12T17:46:50.557Z,102487.90
2023-02-12T17:49:04.233Z,102489.80
2023-02-12T17:51:17.395Z,102490.28
2023-02-12T17:53:29.930Z,102487.86
2023-02-12T17:55:42.560Z,102487.85
2023-02-12T17:57:56.075Z,102489.40
2023-02-12T18:00:10.505Z,102488.70
2023-02-12T18:02:23.104Z,102493.50
2023-02-12T18:04:36.300Z,102490.02
2023-02-12T18:06:49.013Z,102485.86
2023-02-12T18:09:02.012Z,102485.70
2023-02-12T18:11:14.837Z,102483.11
2023-02-12T18:13:27.507Z,102483.96
2023-02-12T18:15:41.176Z,102483.63
2023-02-12T18:17:53.699Z,102482.76
2023-02-12T18:20:07.129Z,102482.08
2023-02-12T18:22:20.645Z,102478.63
2023-02-12T18:24:34.917Z,102481.73
2023-02-12T18:26:47.832Z,102479.30
2023-02-12T18:29:01.065Z,102481.04
2023-02-12T18:31:13.798Z,102482.92
2023-02-12T18:33:26.630Z,102483.94
2023-02-12T18:35:41.819Z,102487.41
2023-02-12T18:37:54.502Z,102484.13
2023-02-12T18:40:08.276Z,102486.19
2023-02-12T18:42:20.840Z,102480.65
2023-02-12T18:44:33.558Z,102477.02
2023-02-12T18:46:46.147Z,102473.41
2023-02-12T18:48:59.296Z,102473.92
2023-02-12T18:51:19.472Z,102473.89
2023-02-12T18:53:32.216Z,102475.62
2023-02-12T18:55:44.786Z,102473.37
2023-02-12T18:57:57.374Z,102471.13
2023-02-12T19:00:10.405Z,102470.61
2023-02-12T19:02:23.209Z,102469.41
2023-02-12T19:04:35.917Z,102465.42
2023-02-12T19:06:51.296Z,102465.94
2023-02-12T19:09:04.349Z,102463.85
2023-02-12T19:11:17.239Z,102464.19
2023-02-12T19:13:29.736Z,102467.80
2023-02-12T19:15:42.596Z,102470.73
2023-02-12T19:17:55.297Z,102473.16
2023-02-12T19:20:08.742Z,102473.84
2023-02-12T19:22:21.268Z,102472.61
2023-02-12T19:24:45.810Z,102474.86
2023-02-12T19:26:59.083Z,102474.31
2023-02-12T19:29:13.303Z,102478.45
2023-02-12T19:31:29.892Z,102478.45
2023-02-12T19:33:43.703Z,102475.14
2023-02-12T19:35:56.259Z,102476.68
2023-02-12T19:38:08.942Z,102477.20
2023-02-12T19:40:21.717Z,102480.80
2023-02-12T19:42:34.326Z,102481.14
2023-02-12T19:44:47.302Z,102478.54
2023-02-12T19:46:59.942Z,102483.02
2023-02-12T19:49:16.516Z,102481.11
2023-02-12T19:51:30.625Z,102480.07
2023-02-12T19:53:43.638Z,102479.38
2023-02-12T19:55:56.242Z,102477.64
2023-02-12T19:58:09.596Z,102483.98
2023-02-12T20:00:22.652Z,102481.36
2023-02-12T20:02:35.444Z,102485.83
2023-02-12T20:04:48.356Z,102485.63
2023-02-12T20:07:01.241Z,102481.83
2023-02-12T20:09:14.169Z,102482.48
2023-02-12T20:11:30.364Z,102481.78
2023-02-12T20:13:43.349Z,102483.99
2023-02-12T20:15:56.062Z,102482.80
2023-02-12T20:18:08.760Z,102483.13
2023-02-12T20:20:21.786Z,102484.16
2023-02-12T20:22:34.369Z,102483.98
2023-02-12T20:24:47.309Z,102485.17
2023-02-12T20:27:01.632Z,102482.59
2023-02-12T20:29:14.200Z,102485.16
2023-02-12T20:31:30.888Z,102486.54
2023-02-12T20:33:44.346Z,102484.13
2023-02-12T20:35:57.361Z,102490.48
2023-02-12T20:38:10.440Z,102492.23
2023-02-12T20:40:23.051Z,102491.86
2023-02-12T20:42:35.764Z,102491.88
2023-02-12T20:44:48.472Z,102494.81
2023-02-12T20:47:01.137Z,102494.48
2023-02-12T20:49:15.564Z,102496.21
2023-02-12T20:51:28.464Z,102495.17
2023-02-12T20:53:42.608Z,102492.91
2023-02-12T20:55:55.169Z,102497.71
2023-02-12T20:58:07.742Z,102495.81
2023-02-12T21:00:20.657Z,102498.59
2023-02-12T21:02:33.467Z,102497.91
2023-02-12T21:04:46.122Z,102495.31
2023-02-12T21:06:59.256Z,102491.17
2023-02-12T21:09:13.906Z,102492.38
2023-02-12T21:11:27.998Z,102494.25
2023-02-12T21:13:58.938Z,102494.60
2023-02-12T21:16:16.713Z,102495.26
2023-02-12T21:18:29.883Z,102495.77
2023-02-12T21:20:42.421Z,102496.30
2023-02-12T21:22:55.007Z,102497.67
2023-02-12T21:25:07.777Z,102498.35
2023-02-12T21:27:20.353Z,102497.48
2023-02-12T21:29:33.353Z,102494.92
2023-02-12T21:31:48.700Z,102489.27
2023-02-12T21:34:02.765Z,102485.66
2023-02-12T21:36:18.612Z,102482.91
2023-02-12T21:38:35.453Z,102477.39
2023-02-12T21:40:48.074Z,102480.31
2023-02-12T21:43:00.629Z,102478.27
2023-02-12T21:45:13.201Z,102478.95
2023-02-12T21:47:27.234Z,102479.80
2023-02-12T21:49:39.931Z,102478.25
2023-02-12T21:51:55.324Z,102477.39
2023-02-12T21:54:10.457Z,102470.31
2023-02-12T21:56:23.667Z,102474.94
2023-02-12T21:58:36.221Z,102478.39
2023-02-12T22:00:50.362Z,102484.62
2023-02-12T22:03:03.030Z,102487.37
2023-02-12T22:05:15.729Z,102492.02
2023-02-12T22:07:28.247Z,102489.27
2023-02-12T22:09:40.813Z,102490.15
2023-02-12T22:11:53.424Z,102490.99
2023-02-12T22:14:08.121Z,102494.61
2023-02-12T22:16:24.318Z,102491.83
2023-02-12T22:18:37.553Z,102492.84
2023-02-12T22:20:50.117Z,102489.70
2023-02-12T22:23:02.774Z,102493.11
2023-02-12T22:25:15.411Z,102491.37
2023-02-12T22:27:31.291Z,102488.09
2023-02-12T22:29:43.812Z,102489.29
2023-02-12T22:31:56.481Z,102489.09
2023-02-12T22:34:16.136Z,102489.12
2023-02-12T22:36:29.246Z,102491.67
2023-02-12T22:38:41.812Z,102490.98
2023-02-12T22:40:54.393Z,102492.00
2023-02-12T22:43:06.917Z,102488.55
2023-02-12T22:45:19.540Z,102489.59
2023-02-12T22:47:33.223Z,102486.67
2023-02-12T22:49:45.747Z,102483.55
2023-02-12T22:51:58.270Z,102488.02
2023-02-12T22:54:14.768Z,102493.54
2023-02-12T22:56:27.498Z,102489.56
2023-02-12T22:58:40.167Z,102489.77
2023-02-12T23:00:52.684Z,102489.08
2023-02-12T23:03:05.230Z,102488.91
2023-02-12T23:05:17.864Z,102491.50
2023-02-12T23:07:30.461Z,102493.04
2023-02-12T23:09:42.919Z,102490.80
2023-02-12T23:11:55.404Z,102487.18
2023-02-12T23:14:07.971Z,102487.38
2023-02-12T23:16:21.211Z,102485.98
2023-02-12T23:18:34.217Z,102486.13
2023-02-12T23:20:47.183Z,102480.79
2023-02-12T23:22:59.732Z,102481.48
2023-02-12T23:25:12.321Z,102474.58
2023-02-12T23:27:24.873Z,102475.28
2023-02-12T23:29:37.485Z,102472.17
2023-02-12T23:31:50.081Z,102472.51
2023-02-12T23:34:03.153Z,102473.36
2023-02-12T23:36:15.720Z,102476.80
2023-02-12T23:38:28.263Z,102468.38
2023-02-12T23:40:41.247Z,102472.86
2023-02-12T23:42:53.824Z,102466.29
2023-02-12T23:45:07.481Z,102466.80
2023-02-12T23:47:20.057Z,102469.58
2023-02-12T23:49:35.157Z,102468.20
2023-02-12T23:51:47.757Z,102467.52
2023-02-12T23:54:01.852Z,102464.76
2023-02-12T23:56:14.328Z,102467.70
2023-02-12T23:58:26.975Z,102464.23
